Time;durP1;ratioP1;P1;durP2;ratioP2;P2;SDS_P1;SDS_P2;PMS_P1;PMS_P2;Temp;Humidity;BMP_temperature;BMP_pressure;BME280_temperature;BME280_humidity;BME280_pressure;Samples;Min_cycle;Max_cycle;Signal;HPM_P1;HPM_P2
2023/06/03 00:01:40;;;;;;;;;4.33;4.00;;;;;26.73;33.62;101809.34;6304841;22;45383;-70
2023/06/03 00:04:06;;;;;;;;;5.33;5.00;;;;;26.74;34.03;101813.66;6304518;22;46486;-70
2023/06/03 00:06:32;;;;;;;;;6.00;6.00;;;;;26.72;33.98;101802.34;6304265;22;45300;-70
2023/06/03 00:08:57;;;;;;;;;7.67;4.67;;;;;26.74;33.48;101804.81;6305242;22;45426;-70
2023/06/03 00:11:22;;;;;;;;;5.00;5.00;;;;;26.73;34.05;101809.34;6305277;22;45300;-70
2023/06/03 00:13:48;;;;;;;;;6.00;5.00;;;;;26.71;33.57;101805.19;6304760;22;45337;-70
2023/06/03 00:16:13;;;;;;;;;6.33;5.67;;;;;26.73;33.90;101803.16;6304652;22;45330;-70
2023/06/03 00:18:39;;;;;;;;;8.00;6.00;;;;;26.73;33.43;101808.50;6305438;22;45225;-70
2023/06/03 00:21:04;;;;;;;;;5.00;4.00;;;;;26.70;33.50;101809.72;6304945;22;45218;-70
2023/06/03 00:23:31;;;;;;;;;7.00;6.00;;;;;26.67;33.26;101791.41;6304990;22;46433;-70
2023/06/03 00:25:57;;;;;;;;;7.00;7.00;;;;;26.65;33.89;101795.28;6304762;22;45273;-70
2023/06/03 00:28:22;;;;;;;;;7.00;7.00;;;;;26.68;33.56;101797.56;6305184;22;45201;-70
2023/06/03 00:30:48;;;;;;;;;6.00;6.00;;;;;26.71;34.05;101811.38;6304594;22;45447;-70
2023/06/03 00:33:13;;;;;;;;;6.00;6.00;;;;;26.69;34.04;101796.56;6304593;22;46007;-70
2023/06/03 00:35:38;;;;;;;;;6.33;4.00;;;;;26.70;33.36;101804.38;6302316;22;45324;-70
2023/06/03 00:38:04;;;;;;;;;7.67;7.67;;;;;26.68;33.52;101801.06;6304852;22;45332;-70
2023/06/03 00:40:29;;;;;;;;;7.67;7.00;;;;;26.67;33.48;101791.41;6305051;22;45378;-70
2023/06/03 00:42:54;;;;;;;;;10.33;7.00;;;;;26.67;33.54;101793.25;6304454;22;46360;-70
2023/06/03 00:45:20;;;;;;;;;6.00;6.00;;;;;26.66;33.20;101786.25;6304498;22;45234;-70
2023/06/03 00:47:46;;;;;;;;;7.00;6.00;;;;;26.66;33.28;101778.25;6304773;22;45509;-70
2023/06/03 00:50:13;;;;;;;;;4.67;4.67;;;;;26.67;33.28;101798.59;6304165;22;45313;-70
2023/06/03 00:52:40;;;;;;;;;9.00;6.00;;;;;26.67;33.92;101787.91;6304251;22;47371;-70
2023/06/03 00:55:06;;;;;;;;;8.00;6.33;;;;;26.64;33.27;101783.78;6304621;22;45213;-70
2023/06/03 00:57:31;;;;;;;;;6.00;5.00;;;;;26.62;33.18;101785.81;6304718;22;45282;-70
2023/06/03 00:59:57;;;;;;;;;8.33;6.33;;;;;26.47;33.39;101749.31;6304435;22;45499;-70
2023/06/03 01:02:23;;;;;;;;;6.00;4.00;;;;;26.59;33.87;101771.00;6304718;22;45595;-70
2023/06/03 01:04:50;;;;;;;;;6.33;6.33;;;;;26.58;33.78;101774.69;6304096;22;45355;-70
2023/06/03 01:07:30;;;;;;;;;7.00;6.00;;;;;26.63;33.51;101774.94;6304455;22;45272;-70
2023/06/03 01:10:26;;;;;;;;;7.67;7.00;;;;;26.62;33.35;101770.63;6304857;22;45415;-70
2023/06/03 01:13:01;;;;;;;;;4.67;4.67;;;;;26.60;33.76;101769.97;6304177;22;45328;-70
2023/06/03 01:15:28;;;;;;;;;11.33;7.33;;;;;26.64;34.01;101778.44;6304494;22;45297;-70
2023/06/03 01:17:57;;;;;;;;;8.67;7.00;;;;;26.60;33.94;101778.00;6302142;22;45330;-70
2023/06/03 01:20:26;;;;;;;;;6.00;6.00;;;;;26.57;33.45;101753.53;6304120;22;45546;-70
2023/06/03 01:22:57;;;;;;;;;6.33;6.00;;;;;26.63;33.35;101766.09;6304191;22;45153;-70
2023/06/03 01:25:23;;;;;;;;;6.00;6.00;;;;;26.63;33.92;101769.59;6304193;22;45324;-70
2023/06/03 01:27:48;;;;;;;;;6.00;6.00;;;;;26.60;33.60;101766.47;6304439;22;45266;-70
2023/06/03 01:30:17;;;;;;;;;7.00;7.00;;;;;26.61;33.79;101760.97;6304826;22;45457;-71
2023/06/03 01:32:43;;;;;;;;;7.00;6.00;;;;;26.60;33.24;101756.63;6303953;22;46400;-70
2023/06/03 01:35:10;;;;;;;;;8.00;7.33;;;;;26.53;33.92;101747.75;6304699;22;45359;-70
2023/06/03 01:37:36;;;;;;;;;6.00;6.00;;;;;26.60;33.34;101753.13;6304345;22;45300;-70
2023/06/03 01:40:04;;;;;;;;;5.33;5.33;;;;;26.58;33.42;101755.19;6304711;22;45324;-70
2023/06/03 01:42:29;;;;;;;;;4.67;4.67;;;;;26.60;33.30;101747.78;6304665;22;46459;-71
2023/06/03 01:44:57;;;;;;;;;6.33;5.67;;;;;26.58;33.84;101750.66;6304637;22;45114;-70
2023/06/03 01:47:23;;;;;;;;;7.00;6.00;;;;;26.58;33.18;101744.50;6303914;22;45161;-70
2023/06/03 01:49:48;;;;;;;;;6.67;6.00;;;;;26.52;33.36;101730.91;6304224;22;45402;-70
2023/06/03 01:52:14;;;;;;;;;6.00;6.00;;;;;26.59;33.38;101732.81;6304400;22;45435;-70
2023/06/03 01:54:39;;;;;;;;;7.00;6.00;;;;;26.59;33.68;101738.16;6304284;22;45279;-70
2023/06/03 01:57:05;;;;;;;;;8.67;8.33;;;;;26.50;33.89;101724.09;6304429;22;45257;-70
2023/06/03 01:59:30;;;;;;;;;7.33;6.33;;;;;26.56;33.98;101736.69;6304760;22;45363;-70
2023/06/03 02:01:57;;;;;;;;;7.00;7.00;;;;;26.56;33.48;101726.03;6303746;22;47387;-70
2023/06/03 02:04:23;;;;;;;;;7.67;6.67;;;;;26.56;33.18;101728.69;6303945;22;45374;-70
2023/06/03 02:06:52;;;;;;;;;5.33;5.33;;;;;26.54;33.29;101716.56;6304314;22;45584;-70
2023/06/03 02:09:21;;;;;;;;;6.00;6.00;;;;;26.57;33.33;101724.19;6304304;22;45271;-70
2023/06/03 02:11:48;;;;;;;;;7.00;5.33;;;;;26.55;33.63;101720.84;6304287;22;46022;-70
2023/06/03 02:14:14;;;;;;;;;5.67;5.67;;;;;26.56;33.42;101717.19;6302596;22;45309;-70
2023/06/03 02:16:40;;;;;;;;;7.00;5.33;;;;;26.55;33.22;101723.53;6304141;22;45079;-70
2023/06/03 02:19:17;;;;;;;;;6.67;5.33;;;;;26.51;33.40;101715.91;6304118;22;45221;-70
2023/06/03 02:21:43;;;;;;;;;6.67;5.67;;;;;26.55;33.28;101727.03;6303768;22;45205;-70
2023/06/03 02:24:09;;;;;;;;;6.00;6.00;;;;;26.52;33.28;101714.88;6303928;22;45356;-71
2023/06/03 02:26:36;;;;;;;;;5.67;5.67;;;;;26.56;33.53;101717.19;6304027;22;45345;-70
2023/06/03 02:29:02;;;;;;;;;8.33;7.00;;;;;26.53;33.27;101713.06;6303960;22;45551;-70
2023/06/03 02:31:28;;;;;;;;;7.67;7.67;;;;;26.55;33.51;101721.69;6303758;22;45983;-70
2023/06/03 02:33:54;;;;;;;;;5.33;5.33;;;;;26.54;33.69;101722.72;6304626;22;45324;-70
2023/06/03 02:36:19;;;;;;;;;6.67;6.67;;;;;26.52;33.59;101714.06;6303919;22;45175;-70
2023/06/03 02:38:47;;;;;;;;;6.00;6.00;;;;;26.50;33.35;101710.75;6304367;22;45435;-70
2023/06/03 02:41:12;;;;;;;;;8.00;7.67;;;;;26.49;33.80;101712.59;6304193;22;46139;-70
2023/06/03 02:43:38;;;;;;;;;5.00;4.67;;;;;26.55;33.58;101720.84;6304105;22;45276;-70
2023/06/03 02:46:03;;;;;;;;;6.00;6.00;;;;;26.55;33.75;101726.19;6303269;22;47536;-70
2023/06/03 02:48:28;;;;;;;;;6.67;6.67;;;;;26.51;33.35;101715.91;6304079;22;45144;-70
2023/06/03 02:50:53;;;;;;;;;7.67;7.67;;;;;26.50;33.44;101711.59;6303503;22;46563;-70
2023/06/03 02:53:19;;;;;;;;;6.00;6.00;;;;;26.48;33.36;101715.47;6303721;22;51978;-70
2023/06/03 02:55:45;;;;;;;;;6.00;6.00;;;;;26.54;33.50;101717.38;6304282;22;45283;-71
2023/06/03 02:58:12;;;;;;;;;6.00;6.00;;;;;26.48;33.70;101712.78;6303741;22;45542;-70
2023/06/03 03:00:39;;;;;;;;;9.00;7.67;;;;;26.53;33.65;101713.06;6302814;22;46993;-70
2023/06/03 03:03:04;;;;;;;;;6.33;6.33;;;;;26.49;33.69;101707.25;6304040;22;45299;-70
2023/06/03 03:05:30;;;;;;;;;8.33;8.00;;;;;26.50;33.71;101708.91;6304232;22;45334;-70
2023/06/03 03:07:58;;;;;;;;;7.00;6.67;;;;;26.49;33.46;101712.59;6304572;22;45384;-70
2023/06/03 03:10:24;;;;;;;;;7.33;6.33;;;;;26.49;33.86;101709.94;6304763;22;46326;-70
2023/06/03 03:12:50;;;;;;;;;5.67;5.67;;;;;26.49;33.85;101706.47;6304802;22;45271;-70
2023/06/03 03:15:15;;;;;;;;;4.00;4.00;;;;;26.47;33.86;101703.97;6305053;22;45754;-70
2023/06/03 03:17:41;;;;;;;;;8.00;5.00;;;;;26.51;33.95;101707.91;6305471;22;45346;-70
2023/06/03 03:20:07;;;;;;;;;8.33;6.67;;;;;26.52;33.75;101719.41;6305414;22;45364;-70
2023/06/03 03:22:33;;;;;;;;;9.00;7.67;;;;;26.51;33.72;101718.59;6305340;22;45343;-70
2023/06/03 03:24:58;;;;;;;;;6.33;6.33;;;;;26.45;33.60;101711.34;6305117;22;45248;-70
2023/06/03 03:27:25;;;;;;;;;7.00;7.00;;;;;26.43;33.39;101708.00;6305604;22;45453;-71
2023/06/03 03:29:51;;;;;;;;;6.67;5.67;;;;;26.43;33.56;101701.84;6304447;22;45171;-70
2023/06/03 03:32:19;;;;;;;;;7.00;7.00;;;;;26.51;33.30;101713.25;6304504;22;45314;-70
2023/06/03 03:34:49;;;;;;;;;8.00;7.33;;;;;26.50;33.70;101703.59;6304948;22;45307;-71
2023/06/03 03:37:14;;;;;;;;;7.00;7.00;;;;;26.49;33.46;101709.13;6305013;22;45617;-71
2023/06/03 03:39:40;;;;;;;;;7.33;7.00;;;;;26.45;33.70;101702.50;6304642;22;46629;-71
2023/06/03 03:42:06;;;;;;;;;9.33;8.00;;;;;26.48;33.80;101705.63;6305589;22;45266;-70
2023/06/03 03:44:32;;;;;;;;;7.00;6.00;;;;;26.47;33.17;101706.63;6304713;22;45364;-70
2023/06/03 03:47:01;;;;;;;;;7.00;6.00;;;;;26.48;33.82;101713.63;6305209;22;45256;-70
2023/06/03 03:49:28;;;;;;;;;9.33;8.00;;;;;26.49;33.56;101720.59;6304611;22;47088;-70
2023/06/03 03:51:56;;;;;;;;;6.33;5.00;;;;;26.43;33.69;101707.16;6305047;22;45216;-70
2023/06/03 03:54:24;;;;;;;;;6.33;6.33;;;;;26.48;33.53;101715.47;6303222;22;45199;-70
2023/06/03 03:56:56;;;;;;;;;7.00;6.00;;;;;26.46;33.52;101712.16;6304945;22;45264;-70
2023/06/03 03:59:26;;;;;;;;;7.00;7.00;;;;;26.40;33.42;101698.53;6305194;22;46556;-70
2023/06/03 04:01:51;;;;;;;;;8.67;7.67;;;;;26.44;33.77;101698.19;6304579;22;45288;-70
2023/06/03 04:04:42;;;;;;;;;9.33;7.00;;;;;26.49;33.87;101707.25;6305282;22;45352;-70
2023/06/03 04:07:14;;;;;;;;;8.00;7.67;;;;;26.46;33.37;101704.16;6305330;22;45365;-70
2023/06/03 04:09:44;;;;;;;;;6.67;6.67;;;;;26.47;33.92;101708.47;6304714;22;46685;-71
2023/06/03 04:12:32;;;;;;;;;9.00;7.67;;;;;26.48;33.38;101708.28;6304648;22;45344;-70
2023/06/03 04:14:57;;;;;;;;;5.00;5.00;;;;;26.42;33.42;101698.34;6304486;22;45268;-70
2023/06/03 04:17:25;;;;;;;;;6.67;6.67;;;;;26.48;33.36;101716.28;6304688;22;45277;-70
2023/06/03 04:19:52;;;;;;;;;7.00;6.00;;;;;26.47;33.29;101714.63;6304092;22;46442;-70
2023/06/03 04:22:20;;;;;;;;;8.33;8.33;;;;;26.49;33.60;101712.59;6303042;22;45127;-70
2023/06/03 04:24:46;;;;;;;;;6.00;6.00;;;;;26.48;33.60;101716.28;6304670;22;45377;-70
2023/06/03 04:27:12;;;;;;;;;7.33;7.00;;;;;26.43;33.42;101709.84;6302708;22;45459;-70
2023/06/03 04:29:39;;;;;;;;;6.00;6.00;;;;;26.45;33.67;101711.34;6304178;22;46505;-70
2023/06/03 04:32:04;;;;;;;;;7.33;6.67;;;;;26.33;33.30;101689.66;6304621;22;45171;-70
2023/06/03 04:34:30;;;;;;;;;4.33;4.33;;;;;26.41;33.62;101710.84;6304708;22;45212;-70
2023/06/03 04:36:55;;;;;;;;;8.33;6.67;;;;;26.45;33.41;101713.16;6304566;22;45483;-70
2023/06/03 04:39:21;;;;;;;;;7.33;7.33;;;;;26.42;33.20;101706.34;6304339;22;47205;-70
2023/06/03 04:41:46;;;;;;;;;7.67;6.00;;;;;26.44;33.88;101709.66;6304234;22;45272;-70
2023/06/03 04:44:13;;;;;;;;;6.67;6.67;;;;;26.47;33.26;101705.78;6305420;22;45291;-70
2023/06/03 04:46:39;;;;;;;;;6.00;5.67;;;;;26.45;33.79;101705.16;6304631;22;45436;-70
2023/06/03 04:49:08;;;;;;;;;7.33;7.33;;;;;26.49;33.78;101704.59;6302567;22;47729;-70
2023/06/03 04:51:33;;;;;;;;;8.00;7.00;;;;;26.50;33.41;101708.09;6304353;22;45307;-70
2023/06/03 04:54:00;;;;;;;;;9.33;6.00;;;;;26.44;33.81;101698.19;6304780;22;45170;-70
2023/06/03 04:56:28;;;;;;;;;7.00;5.33;;;;;26.38;33.29;101692.56;6304281;22;45209;-71
2023/06/03 04:58:55;;;;;;;;;6.00;5.33;;;;;26.48;33.45;101708.28;6304339;22;46285;-70
2023/06/03 05:01:22;;;;;;;;;8.00;6.67;;;;;26.46;33.89;101706.81;6304441;22;45327;-70
2023/06/03 05:03:48;;;;;;;;;5.67;5.67;;;;;26.51;33.12;101720.44;6304884;22;45230;-70
2023/06/03 05:06:13;;;;;;;;;7.00;5.67;;;;;26.46;33.51;101710.31;6305011;22;45230;-70
2023/06/03 05:08:39;;;;;;;;;7.00;7.00;;;;;26.47;33.46;101717.31;6304778;22;45890;-70
2023/06/03 05:11:05;;;;;;;;;7.00;6.00;;;;;26.47;33.33;101713.78;6304418;22;45312;-70
2023/06/03 05:13:31;;;;;;;;;8.00;6.33;;;;;26.48;33.82;101712.78;6304618;22;45221;-70
2023/06/03 05:15:56;;;;;;;;;6.33;5.00;;;;;26.49;33.55;101725.94;6304467;22;45408;-70
2023/06/03 05:18:22;;;;;;;;;6.00;6.00;;;;;26.49;33.73;101717.13;6303881;22;45281;-70
2023/06/03 05:20:47;;;;;;;;;5.67;5.67;;;;;26.54;33.65;101719.22;6304550;22;45259;-70
2023/06/03 05:23:12;;;;;;;;;8.67;6.67;;;;;26.49;33.70;101712.59;6304943;22;45338;-70
2023/06/03 05:25:38;;;;;;;;;5.00;5.00;;;;;26.55;33.78;101721.69;6304594;22;45395;-70
2023/06/03 05:28:03;;;;;;;;;9.33;7.00;;;;;26.35;33.23;101689.44;6304800;22;45294;-71
2023/06/03 05:30:28;;;;;;;;;7.00;5.67;;;;;26.50;33.94;101713.44;6304017;22;45380;-70
2023/06/03 05:32:53;;;;;;;;;6.67;6.67;;;;;26.52;33.34;101719.41;6304528;22;45314;-70
2023/06/03 05:35:19;;;;;;;;;6.00;6.00;;;;;26.58;33.89;101734.66;6305133;22;45472;-70
2023/06/03 05:37:44;;;;;;;;;9.33;8.00;;;;;26.57;33.40;101727.66;6304234;22;46458;-70
2023/06/03 05:40:10;;;;;;;;;7.67;6.67;;;;;26.56;33.56;101731.34;6304210;22;45318;-70
2023/06/03 05:42:36;;;;;;;;;6.00;6.00;;;;;26.54;33.58;101728.06;6305007;22;45238;-70
2023/06/03 05:45:01;;;;;;;;;4.67;4.67;;;;;26.54;33.34;101727.22;6304741;22;45268;-70
2023/06/03 05:47:27;;;;;;;;;5.67;5.00;;;;;26.59;33.34;101735.50;6304215;22;46523;-70
2023/06/03 05:49:52;;;;;;;;;6.67;6.67;;;;;26.60;33.36;101737.97;6304545;22;45245;-70
2023/06/03 05:52:17;;;;;;;;;6.00;6.00;;;;;26.61;33.37;101741.47;6304760;22;45346;-70
2023/06/03 05:54:43;;;;;;;;;5.67;5.67;;;;;26.48;33.81;101718.13;6304488;22;45268;-71
2023/06/03 05:57:08;;;;;;;;;5.00;5.00;;;;;26.62;33.24;101737.78;6304234;22;46548;-70
2023/06/03 05:59:33;;;;;;;;;7.00;6.33;;;;;26.65;33.35;101741.91;6304176;22;45241;-70
2023/06/03 06:01:59;;;;;;;;;6.75;6.75;;;;;26.61;33.39;101731.63;6304719;22;45459;-70
2023/06/03 06:04:24;;;;;;;;;9.00;8.00;;;;;26.65;33.43;101740.06;6304595;22;45204;-70
2023/06/03 06:06:50;;;;;;;;;9.67;7.67;;;;;26.66;33.32;101748.88;6304573;22;46167;-70
2023/06/03 06:09:15;;;;;;;;;8.33;6.67;;;;;26.63;33.29;101742.09;6304168;22;45284;-70
2023/06/03 06:11:42;;;;;;;;;6.33;6.00;;;;;26.69;33.50;101753.84;6304151;22;45228;-70
2023/06/03 06:14:07;;;;;;;;;6.33;6.00;;;;;26.65;33.24;101742.72;6304532;22;45369;-71
2023/06/03 06:16:33;;;;;;;;;6.50;6.25;;;;;26.65;33.80;101744.59;6303665;22;46055;-70
2023/06/03 06:18:58;;;;;;;;;7.00;7.00;;;;;26.66;34.01;101751.56;6303955;22;45141;-70
2023/06/03 06:21:24;;;;;;;;;7.00;7.00;;;;;26.71;33.55;101757.16;6303692;22;45173;-70
2023/06/03 06:23:49;;;;;;;;;5.00;5.00;;;;;26.72;33.57;101759.66;6303765;22;45328;-70
2023/06/03 06:26:16;;;;;;;;;5.00;4.33;;;;;26.70;33.23;101759.00;6303728;22;45969;-70
2023/06/03 06:28:42;;;;;;;;;6.00;5.00;;;;;26.67;33.31;101748.72;6302215;22;45553;-70
2023/06/03 06:31:10;;;;;;;;;7.00;7.00;;;;;26.71;33.66;101752.66;6304179;22;45308;-70
2023/06/03 06:33:36;;;;;;;;;4.00;4.00;;;;;26.74;33.59;101754.94;6304314;22;45364;-70
2023/06/03 06:36:11;;;;;;;;;7.33;6.00;;;;;26.76;33.84;101754.75;6304154;22;45319;-70
2023/06/03 06:38:36;;;;;;;;;6.00;6.00;;;;;26.78;33.67;101759.91;6303994;22;45174;-71
2023/06/03 06:41:03;;;;;;;;;8.00;6.00;;;;;26.35;33.76;101689.44;6303662;22;45206;-70
2023/06/03 06:43:29;;;;;;;;;7.00;7.00;;;;;26.72;33.11;101745.47;6304929;22;45380;-70
2023/06/03 06:45:56;;;;;;;;;6.33;6.33;;;;;26.79;33.43;101757.03;6304927;22;46925;-70
2023/06/03 06:48:21;;;;;;;;;7.00;7.00;;;;;26.79;33.13;101757.03;6304945;22;45311;-71
2023/06/03 06:50:55;;;;;;;;;6.67;5.33;;;;;26.84;33.71;101759.13;6304415;22;45425;-70
2023/06/03 06:53:24;;;;;;;;;4.67;4.67;;;;;26.81;33.75;101763.00;6304818;22;45511;-70
2023/06/03 06:55:52;;;;;;;;;6.67;6.67;;;;;26.85;33.68;101760.78;6304859;22;46488;-70
2023/06/03 06:58:18;;;;;;;;;5.67;5.67;;;;;26.80;33.38;101760.53;6303374;22;45229;-71
2023/06/03 07:00:44;;;;;;;;;5.33;5.33;;;;;26.85;33.56;101763.47;6305589;22;45237;-70
2023/06/03 07:03:15;;;;;;;;;8.00;5.33;;;;;26.85;33.89;101769.59;6305109;22;45426;-70
2023/06/03 07:05:41;;;;;;;;;7.33;6.00;;;;;26.85;33.44;101755.44;6304835;22;45850;-70
2023/06/03 07:08:07;;;;;;;;;6.00;6.00;;;;;26.88;33.25;101767.59;6303318;22;45274;-70
2023/06/03 07:10:33;;;;;;;;;7.67;5.67;;;;;26.88;33.60;101772.94;6304983;22;45276;-70
2023/06/03 07:12:59;;;;;;;;;6.00;6.00;;;;;26.83;33.52;101757.47;6305147;22;45258;-71
2023/06/03 07:15:25;;;;;;;;;6.00;6.00;;;;;26.86;33.68;101767.75;6304981;22;47190;-70
2023/06/03 07:17:55;;;;;;;;;8.00;6.00;;;;;26.85;33.17;101750.91;6305143;22;45406;-70
2023/06/03 07:20:26;;;;;;;;;7.33;7.00;;;;;26.92;33.43;101768.84;6304864;22;45339;-70
2023/06/03 07:22:51;;;;;;;;;6.00;6.00;;;;;26.91;33.12;101767.19;6304969;22;45257;-70
2023/06/03 07:25:37;;;;;;;;;6.00;6.00;;;;;26.92;33.27;101763.50;6304416;22;48657;-70
2023/06/03 07:28:14;;;;;;;;;6.33;6.33;;;;;26.87;33.20;101752.56;6305296;22;45566;-70
2023/06/03 07:30:41;;;;;;;;;6.33;6.00;;;;;26.91;33.82;101760.00;6305162;22;45280;-70
2023/06/03 07:33:22;;;;;;;;;7.00;6.00;;;;;26.93;33.94;101759.84;6305399;22;45393;-70
2023/06/03 07:35:52;;;;;;;;;9.33;8.00;;;;;26.91;33.08;101756.50;6304731;22;45300;-70
2023/06/03 07:38:30;;;;;;;;;8.00;6.67;;;;;26.93;33.28;101752.63;6304673;22;45368;-70
2023/06/03 07:40:55;;;;;;;;;6.33;6.33;;;;;26.88;33.90;101746.22;6305360;22;45266;-70
2023/06/03 07:43:21;;;;;;;;;8.33;7.33;;;;;26.92;33.72;101747.50;6304509;22;45398;-70
2023/06/03 07:45:48;;;;;;;;;9.33;7.33;;;;;26.73;33.83;101718.56;6305274;22;45245;-70
2023/06/03 07:48:14;;;;;;;;;6.33;6.33;;;;;26.93;33.71;101741.16;6304684;22;45453;-70
2023/06/03 07:50:40;;;;;;;;;7.67;7.67;;;;;26.93;33.50;101749.16;6304286;22;45709;-70
2023/06/03 07:53:05;;;;;;;;;7.00;7.00;;;;;26.95;33.73;101750.63;6304424;22;45403;-70
2023/06/03 07:55:38;;;;;;;;;9.00;6.67;;;;;26.98;33.26;101754.75;6304916;22;46263;-71
2023/06/03 07:58:04;;;;;;;;;8.00;7.00;;;;;26.96;33.16;101738.06;6304743;22;45297;-70
2023/06/03 08:00:29;;;;;;;;;6.33;6.33;;;;;26.95;33.57;101739.94;6305313;22;45338;-70
2023/06/03 08:02:54;;;;;;;;;7.33;6.33;;;;;27.00;33.87;101751.88;6305308;22;45207;-70
2023/06/03 08:05:35;;;;;;;;;8.00;7.25;;;;;26.99;33.68;101740.34;6303844;22;46120;-70
2023/06/03 08:08:03;;;;;;;;;7.33;7.33;;;;;26.98;33.58;101743.22;6302866;22;45421;-70
2023/06/03 08:10:29;;;;;;;;;4.00;4.00;;;;;27.02;33.12;101749.81;6304569;22;45296;-70
2023/06/03 08:12:54;;;;;;;;;10.00;9.00;;;;;26.85;33.88;101718.88;6305094;22;45404;-71
2023/06/03 08:15:28;;;;;;;;;6.67;5.33;;;;;27.00;33.70;101743.84;6305072;22;46156;-70
2023/06/03 08:17:54;;;;;;;;;7.00;7.00;;;;;26.98;33.59;101733.38;6304073;22;45284;-71
2023/06/03 08:20:26;;;;;;;;;6.33;6.33;;;;;27.02;33.12;101745.31;6304672;22;45321;-70
2023/06/03 08:22:53;;;;;;;;;9.33;7.00;;;;;27.04;33.20;101751.28;6305384;22;45240;-70
2023/06/03 08:25:19;;;;;;;;;6.00;5.67;;;;;27.04;33.33;101742.44;6304300;22;45926;-70
2023/06/03 08:27:45;;;;;;;;;7.33;6.67;;;;;27.02;33.55;101734.63;6304511;22;45290;-71
2023/06/03 08:30:14;;;;;;;;;7.33;7.33;;;;;27.05;33.54;101738.75;6304747;22;45248;-70
2023/06/03 08:32:41;;;;;;;;;7.50;6.00;;;;;27.06;33.27;101737.75;6304049;22;45276;-70
2023/06/03 08:35:11;;;;;;;;;8.00;7.33;;;;;27.04;33.78;101718.41;6304758;22;46275;-71
2023/06/03 08:37:37;;;;;;;;;8.00;5.67;;;;;27.05;33.18;101723.56;6304547;22;45311;-70
2023/06/03 08:40:08;;;;;;;;;4.33;4.33;;;;;27.06;33.30;101724.41;6304621;22;45134;-71
2023/06/03 08:42:38;;;;;;;;;9.33;9.33;;;;;27.07;33.15;101742.06;6304273;22;45368;-71
2023/06/03 08:45:08;;;;;;;;;6.33;6.00;;;;;27.04;33.71;101753.97;6304208;22;45413;-70
2023/06/03 08:47:46;;;;;;;;;7.00;7.00;;;;;27.06;33.27;101743.09;6303846;22;45438;-71
2023/06/03 08:50:20;;;;;;;;;8.00;7.33;;;;;27.07;33.37;101758.91;6305088;22;45504;-71
2023/06/03 08:52:47;;;;;;;;;5.67;5.67;;;;;26.99;33.19;101739.53;6304400;22;45234;-71
2023/06/03 08:55:15;;;;;;;;;5.67;5.67;;;;;27.07;33.51;101750.06;6304436;22;45441;-70
2023/06/03 08:58:12;;;;;;;;;7.00;7.00;;;;;27.03;33.43;101741.63;6304324;22;45336;-71
2023/06/03 09:00:38;;;;;;;;;8.00;7.50;;;;;27.03;33.48;101748.81;6304714;22;45241;-69
2023/06/03 09:03:05;;;;;;;;;8.00;8.00;;;;;27.12;33.70;101749.50;6304169;22;45497;-69
2023/06/03 09:05:32;;;;;;;;;8.33;7.67;;;;;27.18;33.36;101759.44;6304286;22;46218;-71
2023/06/03 09:07:58;;;;;;;;;6.00;6.00;;;;;27.20;33.63;101741.38;6303734;22;45309;-71
2023/06/03 09:10:26;;;;;;;;;10.00;7.33;;;;;27.23;33.48;101737.47;6304755;22;45217;-71
2023/06/03 09:12:55;;;;;;;;;8.67;4.67;;;;;27.32;33.42;101746.19;6304615;22;45279;-70
2023/06/03 09:15:22;;;;;;;;;8.00;5.33;;;;;27.38;33.87;101742.72;6304206;22;46360;-70
2023/06/03 09:17:48;;;;;;;;;9.67;7.00;;;;;27.39;33.27;101771.94;6304029;22;45362;-73
2023/06/03 09:20:13;;;;;;;;;6.00;6.00;;;;;27.49;33.81;101746.72;6305118;22;45268;-73
2023/06/03 09:22:42;;;;;;;;;7.33;6.33;;;;;27.48;33.77;101732.50;6304425;22;45232;-74
2023/06/03 09:25:08;;;;;;;;;6.67;6.67;;;;;27.59;33.65;101744.50;6304427;22;46610;-70
2023/06/03 09:27:34;;;;;;;;;10.00;7.33;;;;;27.61;33.62;101731.75;6304573;22;45421;-70
2023/06/03 09:30:01;;;;;;;;;6.67;6.67;;;;;27.63;33.70;101732.41;6304248;22;45304;-70
2023/06/03 09:32:27;;;;;;;;;6.00;6.00;;;;;27.69;33.77;101741.47;6304077;22;45303;-70
2023/06/03 09:34:53;;;;;;;;;6.00;6.00;;;;;27.76;33.95;101740.69;6304039;22;47227;-70
2023/06/03 09:37:19;;;;;;;;;7.00;7.00;;;;;27.74;33.20;101733.69;6304697;22;45214;-70
2023/06/03 09:39:44;;;;;;;;;8.33;8.00;;;;;27.80;33.84;101748.16;6304114;22;45252;-70
2023/06/03 09:42:11;;;;;;;;;5.00;5.00;;;;;27.83;33.34;101730.88;6304320;22;45427;-70
2023/06/03 09:44:54;;;;;;;;;8.00;6.00;;;;;27.85;33.58;101755.56;6304040;22;46356;-69
2023/06/03 09:47:20;;;;;;;;;12.33;6.00;;;;;27.79;33.71;101730.41;6303592;22;45374;-69
2023/06/03 09:50:06;;;;;;;;;7.00;7.00;;;;;27.87;33.01;101737.47;6304187;22;45259;-70
2023/06/03 09:52:38;;;;;;;;;7.00;6.00;;;;;27.89;33.12;101746.16;6304468;22;45411;-70
2023/06/03 09:55:08;;;;;;;;;8.00;7.67;;;;;27.88;33.01;101749.00;6303326;22;46429;-71
2023/06/03 09:57:35;;;;;;;;;8.67;7.67;;;;;27.82;32.86;101723.88;6303839;22;45287;-70
2023/06/03 10:00:09;;;;;;;;;10.67;8.67;;;;;27.89;33.00;101740.78;6303860;22;45229;-69
2023/06/03 10:02:37;;;;;;;;;9.67;7.00;;;;;27.88;33.06;101730.28;6304455;22;45427;-69
2023/06/03 10:05:03;;;;;;;;;7.00;7.00;;;;;27.89;33.22;101731.94;6304079;22;45296;-69
2023/06/03 10:07:28;;;;;;;;;8.33;6.33;;;;;27.87;33.33;101726.78;6304318;22;45300;-69
2023/06/03 10:10:04;;;;;;;;;6.33;5.33;;;;;27.87;33.81;101726.78;6304664;22;45279;-71
2023/06/03 10:12:32;;;;;;;;;7.33;6.33;;;;;27.80;33.51;101709.88;6304101;22;45465;-70
2023/06/03 10:14:58;;;;;;;;;6.33;5.00;;;;;27.83;33.13;101728.22;6301681;22;47590;-69
2023/06/03 10:17:24;;;;;;;;;7.00;7.00;;;;;27.84;33.98;101724.53;6303400;22;45301;-69
2023/06/03 10:19:49;;;;;;;;;6.67;6.67;;;;;27.81;33.83;101730.25;6303843;22;45226;-69
2023/06/03 10:22:17;;;;;;;;;9.00;7.00;;;;;27.80;33.74;101736.63;6304109;22;45147;-69
2023/06/03 10:24:46;;;;;;;;;8.00;7.00;;;;;27.79;33.57;101730.41;6303782;22;45383;-69
2023/06/03 10:27:14;;;;;;;;;8.33;6.33;;;;;27.71;33.79;101715.34;6303693;22;45272;-69
2023/06/03 10:29:40;;;;;;;;;6.00;6.00;;;;;27.77;33.37;101726.28;6303571;22;45210;-69
2023/06/03 10:32:07;;;;;;;;;6.00;6.00;;;;;27.75;34.11;101731.84;6303704;22;45279;-68
2023/06/03 10:34:44;;;;;;;;;11.67;6.00;;;;;27.71;33.27;101726.06;6303553;22;45385;-69
2023/06/03 10:37:14;;;;;;;;;10.00;7.00;;;;;27.69;33.76;101714.75;6303740;22;45325;-69
2023/06/03 10:39:42;;;;;;;;;6.67;5.33;;;;;27.70;34.02;101720.91;6304240;22;45333;-69
2023/06/03 10:42:10;;;;;;;;;6.00;6.00;;;;;27.71;33.92;101728.72;6304017;22;45472;-69
2023/06/03 10:44:35;;;;;;;;;7.67;6.00;;;;;27.70;33.62;101727.09;6303645;22;45371;-69
2023/06/03 10:47:15;;;;;;;;;9.00;7.00;;;;;27.71;33.68;101711.88;6303710;22;45244;-69
2023/06/03 10:49:48;;;;;;;;;7.00;7.00;;;;;27.68;33.47;101721.13;6303666;22;45232;-69
2023/06/03 10:52:48;;;;;;;;;6.00;6.00;;;;;27.72;33.47;101741.09;6303862;22;45257;-69
2023/06/03 10:55:34;;;;;;;;;7.00;6.67;;;;;27.72;33.52;101714.34;6177629;23;45292;-69
2023/06/03 10:58:09;;;;;;;;;9.67;7.67;;;;;27.71;33.47;101714.56;6177335;23;45347;-69
2023/06/03 11:00:56;;;;;;;;;7.00;7.00;;;;;27.71;33.54;101727.94;6178099;23;45296;-69
2023/06/03 11:03:22;;;;;;;;;8.33;7.00;;;;;27.62;34.14;101698.69;6178297;23;45415;-69
2023/06/03 11:05:49;;;;;;;;;10.00;8.67;;;;;27.69;34.19;101724.63;6178419;23;46111;-69
2023/06/03 11:08:53;;;;;;;;;6.00;4.67;;;;;27.67;34.17;101721.31;6177863;23;45276;-69
2023/06/03 11:11:40;;;;;;;;;6.33;6.00;;;;;27.65;33.68;101723.34;6178330;23;45267;-69
2023/06/03 11:14:25;;;;;;;;;7.00;5.67;;;;;27.61;33.69;101710.38;6177853;23;45262;-69
2023/06/03 11:16:57;;;;;;;;;5.33;5.33;;;;;27.66;33.71;101720.50;6177678;23;45506;-69
2023/06/03 11:19:38;;;;;;;;;6.00;6.00;;;;;27.65;34.17;101705.47;6178474;23;45346;-69
2023/06/03 11:22:07;;;;;;;;;4.00;2.33;;;;;27.58;33.81;101696.59;6178497;23;45328;-69
2023/06/03 11:24:53;;;;;;;;;5.67;5.67;;;;;27.62;34.40;101704.03;6177952;23;45548;-69
2023/06/03 11:27:19;;;;;;;;;7.00;6.33;;;;;27.61;34.03;101710.38;6177048;23;45551;-69
2023/06/03 11:29:51;;;;;;;;;5.33;5.33;;;;;27.60;34.32;101710.59;6178184;23;45356;-69